<?xml version="1.0" encoding="UTF-8" standalone="no" ?><gpx xmlns="http://www.topografix.com/GPX/1/1" xmlns:gpxx="http://www.garmin.com/xmlschemas/GpxExtensions/v3" xmlns:wptx1="http://www.garmin.com/xmlschemas/WaypointExtension/v1" xmlns:gpxtpx="http://www.garmin.com/xmlschemas/TrackPointExtension/v1" creator="GuideVTT.com" version="1.1" xmlns:xsi="http://www.w3.org/2001/XMLSchema-instance" xsi:schemaLocation="http://www.topografix.com/GPX/1/1 http://www.topografix.com/GPX/1/1/gpx.xsd http://www.garmin.com/xmlschemas/GpxExtensions/v3 http://www8.garmin.com/xmlschemas/GpxExtensionsv3.xsd http://www.garmin.com/xmlschemas/WaypointExtension/v1 http://www8.garmin.com/xmlschemas/WaypointExtensionv1.xsd http://www.garmin.com/xmlschemas/TrackPointExtension/v1 http://www.garmin.com/xmlschemas/TrackPointExtensionv1.xsd">
<metadata><link href="http://www.garmin.com"><text>Garmin International</text></link><time>2013-06-22T15:13:50Z</time></metadata>
<trk><name>nemours.gpx</name><extensions><gpxx:TrackExtension><gpxx:DisplayColor>Cyan</gpxx:DisplayColor></gpxx:TrackExtension></extensions><trkseg>
<trkpt lat="48.26944100" lon="2.69613500"><ele></ele><time>2014-5-25T11:51:41Z</time></trkpt>
<trkpt lat="48.26942000" lon="2.69622100"><ele></ele><time>2014-5-25T11:51:44Z</time></trkpt>
<trkpt lat="48.27156500" lon="2.69504100"><ele></ele><time>2014-5-25T11:51:47Z</time></trkpt>
<trkpt lat="48.27171600" lon="2.69510500"><ele></ele><time>2014-5-25T11:51:50Z</time></trkpt>
<trkpt lat="48.27180200" lon="2.69493300"><ele></ele><time>2014-5-25T11:51:53Z</time></trkpt>
<trkpt lat="48.27216600" lon="2.69459000"><ele></ele><time>2014-5-25T11:51:56Z</time></trkpt>
<trkpt lat="48.27218800" lon="2.69426800"><ele></ele><time>2014-5-25T11:51:59Z</time></trkpt>
<trkpt lat="48.27199500" lon="2.69383900"><ele></ele><time>2014-5-25T11:52:2Z</time></trkpt>
<trkpt lat="48.27180200" lon="2.69349600"><ele></ele><time>2014-5-25T11:52:5Z</time></trkpt>
<trkpt lat="48.27150100" lon="2.69317400"><ele></ele><time>2014-5-25T11:52:8Z</time></trkpt>
<trkpt lat="48.27132900" lon="2.69289500"><ele></ele><time>2014-5-25T11:52:11Z</time></trkpt>
<trkpt lat="48.27102900" lon="2.69231600"><ele></ele><time>2014-5-25T11:52:14Z</time></trkpt>
<trkpt lat="48.27075000" lon="2.69190800"><ele></ele><time>2014-5-25T11:52:17Z</time></trkpt>
<trkpt lat="48.27047100" lon="2.69173600"><ele></ele><time>2014-5-25T11:52:20Z</time></trkpt>
<trkpt lat="48.27023500" lon="2.69145700"><ele></ele><time>2014-5-25T11:52:23Z</time></trkpt>
<trkpt lat="48.27017100" lon="2.69141400"><ele></ele><time>2014-5-25T11:52:26Z</time></trkpt>
<trkpt lat="48.27008500" lon="2.69128600"><ele></ele><time>2014-5-25T11:52:29Z</time></trkpt>
<trkpt lat="48.26989200" lon="2.69109200"><ele></ele><time>2014-5-25T11:52:32Z</time></trkpt>
<trkpt lat="48.26933400" lon="2.69062000"><ele></ele><time>2014-5-25T11:52:35Z</time></trkpt>
<trkpt lat="48.26924800" lon="2.69049200"><ele></ele><time>2014-5-25T11:52:38Z</time></trkpt>
<trkpt lat="48.26916200" lon="2.69042700"><ele></ele><time>2014-5-25T11:52:41Z</time></trkpt>
<trkpt lat="48.26935500" lon="2.69051300"><ele></ele><time>2014-5-25T11:52:44Z</time></trkpt>
<trkpt lat="48.26937700" lon="2.69049200"><ele></ele><time>2014-5-25T11:52:47Z</time></trkpt>
<trkpt lat="48.26905500" lon="2.69019100"><ele></ele><time>2014-5-25T11:52:50Z</time></trkpt>
<trkpt lat="48.26864700" lon="2.68986900"><ele></ele><time>2014-5-25T11:52:53Z</time></trkpt>
<trkpt lat="48.26836800" lon="2.68969800"><ele></ele><time>2014-5-25T11:52:56Z</time></trkpt>
<trkpt lat="48.26824000" lon="2.68954800"><ele></ele><time>2014-5-25T11:52:59Z</time></trkpt>
<trkpt lat="48.26808900" lon="2.68931200"><ele></ele><time>2014-5-25T11:53:2Z</time></trkpt>
<trkpt lat="48.26751000" lon="2.68890400"><ele></ele><time>2014-5-25T11:53:5Z</time></trkpt>
<trkpt lat="48.26697300" lon="2.68877500"><ele></ele><time>2014-5-25T11:53:8Z</time></trkpt>
<trkpt lat="48.26688800" lon="2.68860300"><ele></ele><time>2014-5-25T11:53:11Z</time></trkpt>
<trkpt lat="48.26688800" lon="2.68849600"><ele></ele><time>2014-5-25T11:53:14Z</time></trkpt>
<trkpt lat="48.26684500" lon="2.68843200"><ele></ele><time>2014-5-25T11:53:17Z</time></trkpt>
<trkpt lat="48.26680200" lon="2.68826000"><ele></ele><time>2014-5-25T11:53:20Z</time></trkpt>
<trkpt lat="48.26675900" lon="2.68787400"><ele></ele><time>2014-5-25T11:53:23Z</time></trkpt>
<trkpt lat="48.26673700" lon="2.68748800"><ele></ele><time>2014-5-25T11:53:26Z</time></trkpt>
<trkpt lat="48.26675900" lon="2.68690800"><ele></ele><time>2014-5-25T11:53:29Z</time></trkpt>
<trkpt lat="48.26671600" lon="2.68665100"><ele></ele><time>2014-5-25T11:53:32Z</time></trkpt>
<trkpt lat="48.26671600" lon="2.68596400"><ele></ele><time>2014-5-25T11:53:35Z</time></trkpt>
<trkpt lat="48.26669500" lon="2.68587800"><ele></ele><time>2014-5-25T11:53:38Z</time></trkpt>
<trkpt lat="48.26648000" lon="2.68583500"><ele></ele><time>2014-5-25T11:53:41Z</time></trkpt>
<trkpt lat="48.26577200" lon="2.68583500"><ele></ele><time>2014-5-25T11:53:44Z</time></trkpt>
<trkpt lat="48.26566500" lon="2.68575000"><ele></ele><time>2014-5-25T11:53:47Z</time></trkpt>
<trkpt lat="48.26555700" lon="2.68575000"><ele></ele><time>2014-5-25T11:53:50Z</time></trkpt>
<trkpt lat="48.26530000" lon="2.68562100"><ele></ele><time>2014-5-25T11:53:53Z</time></trkpt>
<trkpt lat="48.26519200" lon="2.68549200"><ele></ele><time>2014-5-25T11:53:56Z</time></trkpt>
<trkpt lat="48.26510700" lon="2.68529900"><ele></ele><time>2014-5-25T11:53:59Z</time></trkpt>
<trkpt lat="48.26478500" lon="2.68482700"><ele></ele><time>2014-5-25T11:54:2Z</time></trkpt>
<trkpt lat="48.26442000" lon="2.68467700"><ele></ele><time>2014-5-25T11:54:5Z</time></trkpt>
<trkpt lat="48.26409800" lon="2.68424800"><ele></ele><time>2014-5-25T11:54:8Z</time></trkpt>
<trkpt lat="48.26394800" lon="2.68418300"><ele></ele><time>2014-5-25T11:54:11Z</time></trkpt>
<trkpt lat="48.26377600" lon="2.68420500"><ele></ele><time>2014-5-25T11:54:14Z</time></trkpt>
<trkpt lat="48.26364800" lon="2.68431200"><ele></ele><time>2014-5-25T11:54:17Z</time></trkpt>
<trkpt lat="48.26358300" lon="2.68444100"><ele></ele><time>2014-5-25T11:54:20Z</time></trkpt>
<trkpt lat="48.26356200" lon="2.68459100"><ele></ele><time>2014-5-25T11:54:23Z</time></trkpt>
<trkpt lat="48.26358300" lon="2.68506300"><ele></ele><time>2014-5-25T11:54:26Z</time></trkpt>
<trkpt lat="48.26345400" lon="2.68512700"><ele></ele><time>2014-5-25T11:54:29Z</time></trkpt>
<trkpt lat="48.26330400" lon="2.68527800"><ele></ele><time>2014-5-25T11:54:32Z</time></trkpt>
<trkpt lat="48.26313300" lon="2.68532000"><ele></ele><time>2014-5-25T11:54:35Z</time></trkpt>
<trkpt lat="48.26291800" lon="2.68476300"><ele></ele><time>2014-5-25T11:54:38Z</time></trkpt>
<trkpt lat="48.26270300" lon="2.68439800"><ele></ele><time>2014-5-25T11:54:41Z</time></trkpt>
<trkpt lat="48.26233900" lon="2.68420500"><ele></ele><time>2014-5-25T11:54:44Z</time></trkpt>
<trkpt lat="48.26225300" lon="2.68396900"><ele></ele><time>2014-5-25T11:54:47Z</time></trkpt>
<trkpt lat="48.26227400" lon="2.68371100"><ele></ele><time>2014-5-25T11:54:50Z</time></trkpt>
<trkpt lat="48.26225300" lon="2.68306700"><ele></ele><time>2014-5-25T11:54:53Z</time></trkpt>
<trkpt lat="48.26218800" lon="2.68293900"><ele></ele><time>2014-5-25T11:54:56Z</time></trkpt>
<trkpt lat="48.26212400" lon="2.68287400"><ele></ele><time>2014-5-25T11:54:59Z</time></trkpt>
<trkpt lat="48.26221000" lon="2.68287400"><ele></ele><time>2014-5-25T11:55:2Z</time></trkpt>
<trkpt lat="48.26212400" lon="2.68272400"><ele></ele><time>2014-5-25T11:55:5Z</time></trkpt>
<trkpt lat="48.26203800" lon="2.68233800"><ele></ele><time>2014-5-25T11:55:8Z</time></trkpt>
<trkpt lat="48.26193100" lon="2.68201600"><ele></ele><time>2014-5-25T11:55:11Z</time></trkpt>
<trkpt lat="48.26180200" lon="2.68182300"><ele></ele><time>2014-5-25T11:55:14Z</time></trkpt>
<trkpt lat="48.26169500" lon="2.68148000"><ele></ele><time>2014-5-25T11:55:17Z</time></trkpt>
<trkpt lat="48.26158800" lon="2.68075000"><ele></ele><time>2014-5-25T11:55:20Z</time></trkpt>
<trkpt lat="48.26150200" lon="2.68060000"><ele></ele><time>2014-5-25T11:55:23Z</time></trkpt>
<trkpt lat="48.26135200" lon="2.68014900"><ele></ele><time>2014-5-25T11:55:26Z</time></trkpt>
<trkpt lat="48.26109400" lon="2.67987000"><ele></ele><time>2014-5-25T11:55:29Z</time></trkpt>
<trkpt lat="48.26092200" lon="2.67987000"><ele></ele><time>2014-5-25T11:55:32Z</time></trkpt>
<trkpt lat="48.26070800" lon="2.67993400"><ele></ele><time>2014-5-25T11:55:35Z</time></trkpt>
<trkpt lat="48.26034300" lon="2.67991300"><ele></ele><time>2014-5-25T11:55:38Z</time></trkpt>
<trkpt lat="48.26002100" lon="2.67974100"><ele></ele><time>2014-5-25T11:55:41Z</time></trkpt>
<trkpt lat="48.25976400" lon="2.67978400"><ele></ele><time>2014-5-25T11:55:44Z</time></trkpt>
<trkpt lat="48.25944200" lon="2.67976300"><ele></ele><time>2014-5-25T11:55:47Z</time></trkpt>
<trkpt lat="48.25931300" lon="2.67961300"><ele></ele><time>2014-5-25T11:55:50Z</time></trkpt>
<trkpt lat="48.25914100" lon="2.67957000"><ele></ele><time>2014-5-25T11:55:53Z</time></trkpt>
<trkpt lat="48.25903400" lon="2.67967700"><ele></ele><time>2014-5-25T11:55:56Z</time></trkpt>
<trkpt lat="48.25897000" lon="2.67987000"><ele></ele><time>2014-5-25T11:55:59Z</time></trkpt>
<trkpt lat="48.25890500" lon="2.67993400"><ele></ele><time>2014-5-25T11:56:2Z</time></trkpt>
<trkpt lat="48.25882000" lon="2.68008500"><ele></ele><time>2014-5-25T11:56:5Z</time></trkpt>
<trkpt lat="48.25879800" lon="2.68021300"><ele></ele><time>2014-5-25T11:56:8Z</time></trkpt>
<trkpt lat="48.25875500" lon="2.68027800"><ele></ele><time>2014-5-25T11:56:11Z</time></trkpt>
<trkpt lat="48.25873400" lon="2.68025600"><ele></ele><time>2014-5-25T11:56:14Z</time></trkpt>
<trkpt lat="48.25877700" lon="2.68060000"><ele></ele><time>2014-5-25T11:56:17Z</time></trkpt>
<trkpt lat="48.25882000" lon="2.68072800"><ele></ele><time>2014-5-25T11:56:20Z</time></trkpt>
<trkpt lat="48.25873400" lon="2.68126500"><ele></ele><time>2014-5-25T11:56:23Z</time></trkpt>
<trkpt lat="48.25873400" lon="2.68154400"><ele></ele><time>2014-5-25T11:56:26Z</time></trkpt>
<trkpt lat="48.25890500" lon="2.68212300"><ele></ele><time>2014-5-25T11:56:29Z</time></trkpt>
<trkpt lat="48.25903400" lon="2.68231600"><ele></ele><time>2014-5-25T11:56:32Z</time></trkpt>
<trkpt lat="48.25963500" lon="2.68289600"><ele></ele><time>2014-5-25T11:56:35Z</time></trkpt>
<trkpt lat="48.26004300" lon="2.68311000"><ele></ele><time>2014-5-25T11:56:38Z</time></trkpt>
<trkpt lat="48.26023600" lon="2.68330300"><ele></ele><time>2014-5-25T11:56:41Z</time></trkpt>
<trkpt lat="48.26036500" lon="2.68353900"><ele></ele><time>2014-5-25T11:56:44Z</time></trkpt>
<trkpt lat="48.26051500" lon="2.68403300"><ele></ele><time>2014-5-25T11:56:47Z</time></trkpt>
<trkpt lat="48.26060100" lon="2.68424800"><ele></ele><time>2014-5-25T11:56:50Z</time></trkpt>
<trkpt lat="48.26072900" lon="2.68446200"><ele></ele><time>2014-5-25T11:56:53Z</time></trkpt>
<trkpt lat="48.26060100" lon="2.68474100"><ele></ele><time>2014-5-25T11:56:56Z</time></trkpt>
<trkpt lat="48.26055800" lon="2.68495600"><ele></ele><time>2014-5-25T11:56:59Z</time></trkpt>
<trkpt lat="48.26047200" lon="2.68502000"><ele></ele><time>2014-5-25T11:57:2Z</time></trkpt>
<trkpt lat="48.26068600" lon="2.68538500"><ele></ele><time>2014-5-25T11:57:5Z</time></trkpt>
<trkpt lat="48.26085800" lon="2.68562100"><ele></ele><time>2014-5-25T11:57:8Z</time></trkpt>
<trkpt lat="48.26096500" lon="2.68613600"><ele></ele><time>2014-5-25T11:57:11Z</time></trkpt>
<trkpt lat="48.26103000" lon="2.68622200"><ele></ele><time>2014-5-25T11:57:14Z</time></trkpt>
<trkpt lat="48.26111600" lon="2.68641500"><ele></ele><time>2014-5-25T11:57:17Z</time></trkpt>
<trkpt lat="48.26156600" lon="2.68787400"><ele></ele><time>2014-5-25T11:57:20Z</time></trkpt>
<trkpt lat="48.26195200" lon="2.68847500"><ele></ele><time>2014-5-25T11:57:23Z</time></trkpt>
<trkpt lat="48.26206000" lon="2.68860300"><ele></ele><time>2014-5-25T11:57:26Z</time></trkpt>
<trkpt lat="48.26225300" lon="2.68905400"><ele></ele><time>2014-5-25T11:57:29Z</time></trkpt>
<trkpt lat="48.26233900" lon="2.68933300"><ele></ele><time>2014-5-25T11:57:32Z</time></trkpt>
<trkpt lat="48.26229600" lon="2.68933300"><ele></ele><time>2014-5-25T11:57:35Z</time></trkpt>
<trkpt lat="48.26225300" lon="2.68965500"><ele></ele><time>2014-5-25T11:57:38Z</time></trkpt>
<trkpt lat="48.26203800" lon="2.68993400"><ele></ele><time>2014-5-25T11:57:41Z</time></trkpt>
<trkpt lat="48.26199500" lon="2.69008400"><ele></ele><time>2014-5-25T11:57:44Z</time></trkpt>
<trkpt lat="48.26169500" lon="2.69074900"><ele></ele><time>2014-5-25T11:57:47Z</time></trkpt>
<trkpt lat="48.26188800" lon="2.69158600"><ele></ele><time>2014-5-25T11:57:50Z</time></trkpt>
<trkpt lat="48.26193100" lon="2.69154300"><ele></ele><time>2014-5-25T11:57:53Z</time></trkpt>
<trkpt lat="48.26244600" lon="2.69165000"><ele></ele><time>2014-5-25T11:57:56Z</time></trkpt>
<trkpt lat="48.26248900" lon="2.69205800"><ele></ele><time>2014-5-25T11:57:59Z</time></trkpt>
<trkpt lat="48.26255300" lon="2.69231600"><ele></ele><time>2014-5-25T11:58:2Z</time></trkpt>
<trkpt lat="48.26281100" lon="2.69265900"><ele></ele><time>2014-5-25T11:58:5Z</time></trkpt>
<trkpt lat="48.26313300" lon="2.69250900"><ele></ele><time>2014-5-25T11:58:8Z</time></trkpt>
<trkpt lat="48.26354000" lon="2.69238000"><ele></ele><time>2014-5-25T11:58:11Z</time></trkpt>
<trkpt lat="48.26375500" lon="2.69225100"><ele></ele><time>2014-5-25T11:58:14Z</time></trkpt>
<trkpt lat="48.26369100" lon="2.69218700"><ele></ele><time>2014-5-25T11:58:17Z</time></trkpt>
<trkpt lat="48.26366900" lon="2.69220800"><ele></ele><time>2014-5-25T11:58:20Z</time></trkpt>
<trkpt lat="48.26354000" lon="2.69255200"><ele></ele><time>2014-5-25T11:58:23Z</time></trkpt>
<trkpt lat="48.26356200" lon="2.69274500"><ele></ele><time>2014-5-25T11:58:26Z</time></trkpt>
<trkpt lat="48.26347600" lon="2.69323800"><ele></ele><time>2014-5-25T11:58:29Z</time></trkpt>
<trkpt lat="48.26336900" lon="2.69362400"><ele></ele><time>2014-5-25T11:58:32Z</time></trkpt>
<trkpt lat="48.26304700" lon="2.69401100"><ele></ele><time>2014-5-25T11:58:35Z</time></trkpt>
<trkpt lat="48.26281100" lon="2.69420400"><ele></ele><time>2014-5-25T11:58:38Z</time></trkpt>
<trkpt lat="48.26291800" lon="2.69439700"><ele></ele><time>2014-5-25T11:58:41Z</time></trkpt>
<trkpt lat="48.26296100" lon="2.69446100"><ele></ele><time>2014-5-25T11:58:44Z</time></trkpt>
<trkpt lat="48.26302500" lon="2.69450400"><ele></ele><time>2014-5-25T11:58:47Z</time></trkpt>
<trkpt lat="48.26334700" lon="2.69446100"><ele></ele><time>2014-5-25T11:58:50Z</time></trkpt>
<trkpt lat="48.26349700" lon="2.69450400"><ele></ele><time>2014-5-25T11:58:53Z</time></trkpt>
<trkpt lat="48.26375500" lon="2.69429000"><ele></ele><time>2014-5-25T11:58:56Z</time></trkpt>
<trkpt lat="48.26403400" lon="2.69413900"><ele></ele><time>2014-5-25T11:58:59Z</time></trkpt>
<trkpt lat="48.26407700" lon="2.69405400"><ele></ele><time>2014-5-25T11:59:2Z</time></trkpt>
<trkpt lat="48.26420600" lon="2.69396800"><ele></ele><time>2014-5-25T11:59:5Z</time></trkpt>
<trkpt lat="48.26446300" lon="2.69381800"><ele></ele><time>2014-5-25T11:59:8Z</time></trkpt>
<trkpt lat="48.26461300" lon="2.69379600"><ele></ele><time>2014-5-25T11:59:11Z</time></trkpt>
<trkpt lat="48.26469900" lon="2.69401100"><ele></ele><time>2014-5-25T11:59:14Z</time></trkpt>
<trkpt lat="48.26478500" lon="2.69456900"><ele></ele><time>2014-5-25T11:59:17Z</time></trkpt>
<trkpt lat="48.26424800" lon="2.69495500"><ele></ele><time>2014-5-25T11:59:20Z</time></trkpt>
<trkpt lat="48.26390500" lon="2.69471900"><ele></ele><time>2014-5-25T11:59:23Z</time></trkpt>
<trkpt lat="48.26405500" lon="2.69486900"><ele></ele><time>2014-5-25T11:59:26Z</time></trkpt>
<trkpt lat="48.26401200" lon="2.69499800"><ele></ele><time>2014-5-25T11:59:29Z</time></trkpt>
<trkpt lat="48.26390500" lon="2.69510500"><ele></ele><time>2014-5-25T11:59:32Z</time></trkpt>
<trkpt lat="48.26379800" lon="2.69532000"><ele></ele><time>2014-5-25T11:59:35Z</time></trkpt>
<trkpt lat="48.26379800" lon="2.69538400"><ele></ele><time>2014-5-25T11:59:38Z</time></trkpt>
<trkpt lat="48.26399100" lon="2.69570600"><ele></ele><time>2014-5-25T11:59:41Z</time></trkpt>
<trkpt lat="48.26424800" lon="2.69594200"><ele></ele><time>2014-5-25T11:59:44Z</time></trkpt>
<trkpt lat="48.26433400" lon="2.69596300"><ele></ele><time>2014-5-25T11:59:47Z</time></trkpt>
<trkpt lat="48.26454700" lon="2.69615300"><ele></ele><time>2014-5-25T11:59:50Z</time></trkpt>
<trkpt lat="48.26478500" lon="2.69622100"><ele></ele><time>2014-5-25T11:59:53Z</time></trkpt>
<trkpt lat="48.26472000" lon="2.69617800"><ele></ele><time>2014-5-25T11:59:56Z</time></trkpt>
<trkpt lat="48.26499900" lon="2.69613500"><ele></ele><time>2014-5-25T11:59:59Z</time></trkpt>
<trkpt lat="48.26512800" lon="2.69615600"><ele></ele><time>2014-5-25T12:0:2Z</time></trkpt>
<trkpt lat="48.26572900" lon="2.69654300"><ele></ele><time>2014-5-25T12:0:5Z</time></trkpt>
<trkpt lat="48.26560000" lon="2.69662900"><ele></ele><time>2014-5-25T12:0:8Z</time></trkpt>
<trkpt lat="48.26555700" lon="2.69669300"><ele></ele><time>2014-5-25T12:0:11Z</time></trkpt>
<trkpt lat="48.26553600" lon="2.69684300"><ele></ele><time>2014-5-25T12:0:14Z</time></trkpt>
<trkpt lat="48.26549300" lon="2.69688600"><ele></ele><time>2014-5-25T12:0:17Z</time></trkpt>
<trkpt lat="48.26551400" lon="2.69712200"><ele></ele><time>2014-5-25T12:0:20Z</time></trkpt>
<trkpt lat="48.26557900" lon="2.69731500"><ele></ele><time>2014-5-25T12:0:23Z</time></trkpt>
<trkpt lat="48.26564300" lon="2.69742300"><ele></ele><time>2014-5-25T12:0:26Z</time></trkpt>
<trkpt lat="48.26575000" lon="2.69780900"><ele></ele><time>2014-5-25T12:0:29Z</time></trkpt>
<trkpt lat="48.26568600" lon="2.69740100"><ele></ele><time>2014-5-25T12:0:32Z</time></trkpt>
<trkpt lat="48.26560000" lon="2.69722900"><ele></ele><time>2014-5-25T12:0:35Z</time></trkpt>
<trkpt lat="48.26555700" lon="2.69697200"><ele></ele><time>2014-5-25T12:0:38Z</time></trkpt>
<trkpt lat="48.26555700" lon="2.69677900"><ele></ele><time>2014-5-25T12:0:41Z</time></trkpt>
<trkpt lat="48.26542800" lon="2.69660700"><ele></ele><time>2014-5-25T12:0:44Z</time></trkpt>
<trkpt lat="48.26534300" lon="2.69665000"><ele></ele><time>2014-5-25T12:0:47Z</time></trkpt>
<trkpt lat="48.26515000" lon="2.69725100"><ele></ele><time>2014-5-25T12:0:50Z</time></trkpt>
<trkpt lat="48.26510700" lon="2.69729400"><ele></ele><time>2014-5-25T12:0:53Z</time></trkpt>
<trkpt lat="48.26508500" lon="2.69738000"><ele></ele><time>2014-5-25T12:0:56Z</time></trkpt>
<trkpt lat="48.26510700" lon="2.69692900"><ele></ele><time>2014-5-25T12:0:59Z</time></trkpt>
<trkpt lat="48.26508500" lon="2.69688600"><ele></ele><time>2014-5-25T12:1:2Z</time></trkpt>
<trkpt lat="48.26506400" lon="2.69688600"><ele></ele><time>2014-5-25T12:1:5Z</time></trkpt>
<trkpt lat="48.26506400" lon="2.69684300"><ele></ele><time>2014-5-25T12:1:8Z</time></trkpt>
<trkpt lat="48.26515000" lon="2.69673600"><ele></ele><time>2014-5-25T12:1:11Z</time></trkpt>
<trkpt lat="48.26551400" lon="2.69677900"><ele></ele><time>2014-5-25T12:1:14Z</time></trkpt>
<trkpt lat="48.26549300" lon="2.69710100"><ele></ele><time>2014-5-25T12:1:17Z</time></trkpt>
<trkpt lat="48.26557900" lon="2.69738000"><ele></ele><time>2014-5-25T12:1:20Z</time></trkpt>
<trkpt lat="48.26585800" lon="2.69755100"><ele></ele><time>2014-5-25T12:1:23Z</time></trkpt>
<trkpt lat="48.26594300" lon="2.69768000"><ele></ele><time>2014-5-25T12:1:26Z</time></trkpt>
<trkpt lat="48.26618000" lon="2.69753000"><ele></ele><time>2014-5-25T12:1:29Z</time></trkpt>
<trkpt lat="48.26635100" lon="2.69755100"><ele></ele><time>2014-5-25T12:1:32Z</time></trkpt>
<trkpt lat="48.26637300" lon="2.69761600"><ele></ele><time>2014-5-25T12:1:35Z</time></trkpt>
<trkpt lat="48.26628700" lon="2.69746500"><ele></ele><time>2014-5-25T12:1:38Z</time></trkpt>
<trkpt lat="48.26622200" lon="2.69699300"><ele></ele><time>2014-5-25T12:1:41Z</time></trkpt>
<trkpt lat="48.26624400" lon="2.69673600"><ele></ele><time>2014-5-25T12:1:44Z</time></trkpt>
<trkpt lat="48.26622200" lon="2.69641400"><ele></ele><time>2014-5-25T12:1:47Z</time></trkpt>
<trkpt lat="48.26663000" lon="2.69641400"><ele></ele><time>2014-5-25T12:1:50Z</time></trkpt>
<trkpt lat="48.26703800" lon="2.69624200"><ele></ele><time>2014-5-25T12:1:53Z</time></trkpt>
<trkpt lat="48.26712400" lon="2.69604900"><ele></ele><time>2014-5-25T12:1:56Z</time></trkpt>
<trkpt lat="48.26714500" lon="2.69604900"><ele></ele><time>2014-5-25T12:1:59Z</time></trkpt>
<trkpt lat="48.26710200" lon="2.69615600"><ele></ele><time>2014-5-25T12:2:2Z</time></trkpt>
<trkpt lat="48.26701600" lon="2.69686500"><ele></ele><time>2014-5-25T12:2:5Z</time></trkpt>
<trkpt lat="48.26708100" lon="2.69626400"><ele></ele><time>2014-5-25T12:2:8Z</time></trkpt>
<trkpt lat="48.26721000" lon="2.69630700"><ele></ele><time>2014-5-25T12:2:11Z</time></trkpt>
<trkpt lat="48.26721000" lon="2.69619900"><ele></ele><time>2014-5-25T12:2:14Z</time></trkpt>
<trkpt lat="48.26740300" lon="2.69596300"><ele></ele><time>2014-5-25T12:2:17Z</time></trkpt>
<trkpt lat="48.26751000" lon="2.69589900"><ele></ele><time>2014-5-25T12:2:20Z</time></trkpt>
<trkpt lat="48.26817500" lon="2.69594200"><ele></ele><time>2014-5-25T12:2:23Z</time></trkpt>
<trkpt lat="48.26821800" lon="2.69585600"><ele></ele><time>2014-5-25T12:2:26Z</time></trkpt>
<trkpt lat="48.26836800" lon="2.69604900"><ele></ele><time>2014-5-25T12:2:29Z</time></trkpt>
<trkpt lat="48.26836800" lon="2.69609200"><ele></ele><time>2014-5-25T12:2:32Z</time></trkpt>
<trkpt lat="48.26871200" lon="2.69632800"><ele></ele><time>2014-5-25T12:2:35Z</time></trkpt>
<trkpt lat="48.26905500" lon="2.69611400"><ele></ele><time>2014-5-25T12:2:38Z</time></trkpt>
<trkpt lat="48.26944100" lon="2.69669300"><ele></ele><time>2014-5-25T12:2:41Z</time></trkpt>
</trkseg></trk></gpx>